Terminal Aerodrome Forecast
Issued by NWS Kansas City/Pleasant Hill, MO

Home | Current Version | Previous Version | Text Only | Print | Product List | Glossary On
Versions: 1 2 3 4 5 6 7 8 9 10 11 12 13 14 15 16
646
FTUS43 KEAX 221100
TAFMCI
TAF
KMCI 221120Z 2212/2312 22005KT P6SM BKN150
     FM222100 16006KT P6SM BKN080
     FM230600 12006KT P6SM VCSH BKN040=

USA.gov is the U.S. government's official web portal to all federal, state and local government web resources and services.